ヤクーツク の空港の天気 - METARとTAF

ヤクーツク空港 ( UEEE / YKS ) - ロシア ヤクーツク
飛行場実況気象(Metar)
観測時間09/25 12:30 YAKT (09/25 03:30 UTC)
風向・風速南 3m/s
視程10km以上
天気現象
なし
気温12℃
湿度47%
気圧1012hPa
METARUEEE 250330Z 19003MPS CAVOK 12/01 Q1012 R23L/09//60 NOSIG RMK QFE750
過去の天気等 Google飛行場航空写真 Wunderground天気予報

過去48時間のMETAR

飛行場予報(TAF)
発表時間: 9/25 11:00 YAKT (9/25 02:00 UTC)
予報対象時間: 25日12時 YAKT ~ 26日18時 YAKT
風向・風速南 3m/s
視程10km以上
なし
TAF UEEE 250200Z 2503/2609 19003MPS CAVOK